sensor_id;sensor_type;location;lat;lon;timestamp;P1;durP1;ratioP1;P2;durP2;ratioP2
51382;SDS011;37475;43.358;1.248;2024-02-26T00:01:04;16.13;;;3.28;;
51382;SDS011;37475;43.358;1.248;2024-02-26T00:03:32;23.70;;;5.28;;
51382;SDS011;37475;43.358;1.248;2024-02-26T00:06:00;13.77;;;3.67;;
51382;SDS011;37475;43.358;1.248;2024-02-26T00:08:27;20.08;;;4.15;;
51382;SDS011;37475;43.358;1.248;2024-02-26T00:10:54;15.82;;;3.38;;
51382;SDS011;37475;43.358;1.248;2024-02-26T00:13:21;13.93;;;3.65;;
51382;SDS011;37475;43.358;1.248;2024-02-26T00:15:48;19.13;;;4.47;;
51382;SDS011;37475;43.358;1.248;2024-02-26T00:18:14;19.98;;;4.43;;
51382;SDS011;37475;43.358;1.248;2024-02-26T00:20:42;15.57;;;3.70;;
51382;SDS011;37475;43.358;1.248;2024-02-26T00:23:09;17.95;;;3.90;;
51382;SDS011;37475;43.358;1.248;2024-02-26T00:25:36;17.58;;;3.78;;
51382;SDS011;37475;43.358;1.248;2024-02-26T00:28:04;19.98;;;4.80;;
51382;SDS011;37475;43.358;1.248;2024-02-26T00:30:31;20.33;;;3.50;;
51382;SDS011;37475;43.358;1.248;2024-02-26T00:32:57;20.08;;;3.20;;
51382;SDS011;37475;43.358;1.248;2024-02-26T00:35:24;17.83;;;3.70;;
51382;SDS011;37475;43.358;1.248;2024-02-26T00:37:52;23.55;;;3.40;;
51382;SDS011;37475;43.358;1.248;2024-02-26T00:40:19;19.08;;;3.88;;
51382;SDS011;37475;43.358;1.248;2024-02-26T00:42:46;19.30;;;2.92;;
51382;SDS011;37475;43.358;1.248;2024-02-26T00:45:13;21.48;;;4.65;;
51382;SDS011;37475;43.358;1.248;2024-02-26T00:47:39;19.60;;;5.10;;
51382;SDS011;37475;43.358;1.248;2024-02-26T00:50:07;17.63;;;3.70;;
51382;SDS011;37475;43.358;1.248;2024-02-26T00:52:34;20.80;;;5.35;;
51382;SDS011;37475;43.358;1.248;2024-02-26T00:57:31;25.55;;;3.95;;
51382;SDS011;37475;43.358;1.248;2024-02-26T00:59:58;19.77;;;4.13;;
51382;SDS011;37475;43.358;1.248;2024-02-26T01:02:25;36.42;;;18.42;;
51382;SDS011;37475;43.358;1.248;2024-02-26T01:04:52;18.35;;;3.92;;
51382;SDS011;37475;43.358;1.248;2024-02-26T01:07:19;23.27;;;3.65;;
51382;SDS011;37475;43.358;1.248;2024-02-26T01:09:46;21.08;;;3.60;;
51382;SDS011;37475;43.358;1.248;2024-02-26T01:12:13;23.33;;;4.13;;
51382;SDS011;37475;43.358;1.248;2024-02-26T01:14:39;20.88;;;4.05;;
51382;SDS011;37475;43.358;1.248;2024-02-26T01:17:06;19.20;;;3.70;;
51382;SDS011;37475;43.358;1.248;2024-02-26T01:19:33;18.38;;;4.90;;
51382;SDS011;37475;43.358;1.248;2024-02-26T01:21:59;19.70;;;4.07;;
51382;SDS011;37475;43.358;1.248;2024-02-26T01:24:26;19.70;;;4.07;;
51382;SDS011;37475;43.358;1.248;2024-02-26T01:26:53;17.77;;;3.75;;
51382;SDS011;37475;43.358;1.248;2024-02-26T01:29:21;22.45;;;3.80;;
51382;SDS011;37475;43.358;1.248;2024-02-26T01:31:48;16.10;;;3.30;;
51382;SDS011;37475;43.358;1.248;2024-02-26T01:34:14;20.85;;;4.45;;
51382;SDS011;37475;43.358;1.248;2024-02-26T01:36:42;22.13;;;4.10;;
51382;SDS011;37475;43.358;1.248;2024-02-26T01:39:09;18.20;;;3.95;;
51382;SDS011;37475;43.358;1.248;2024-02-26T01:41:37;19.40;;;4.50;;
51382;SDS011;37475;43.358;1.248;2024-02-26T01:44:04;16.20;;;4.20;;
51382;SDS011;37475;43.358;1.248;2024-02-26T01:46:33;22.83;;;4.22;;
51382;SDS011;37475;43.358;1.248;2024-02-26T01:49:00;23.25;;;4.00;;
51382;SDS011;37475;43.358;1.248;2024-02-26T01:51:28;19.83;;;4.18;;
51382;SDS011;37475;43.358;1.248;2024-02-26T01:53:57;23.52;;;3.58;;
51382;SDS011;37475;43.358;1.248;2024-02-26T01:56:24;15.05;;;3.50;;
51382;SDS011;37475;43.358;1.248;2024-02-26T01:58:55;15.90;;;3.28;;
51382;SDS011;37475;43.358;1.248;2024-02-26T02:01:23;15.93;;;3.60;;
51382;SDS011;37475;43.358;1.248;2024-02-26T02:03:55;21.33;;;4.20;;
51382;SDS011;37475;43.358;1.248;2024-02-26T02:06:24;15.88;;;4.32;;
51382;SDS011;37475;43.358;1.248;2024-02-26T02:08:51;17.00;;;3.60;;
51382;SDS011;37475;43.358;1.248;2024-02-26T02:11:18;18.98;;;3.25;;
51382;SDS011;37475;43.358;1.248;2024-02-26T02:13:45;15.68;;;4.85;;
51382;SDS011;37475;43.358;1.248;2024-02-26T02:16:12;54.97;;;24.38;;
51382;SDS011;37475;43.358;1.248;2024-02-26T02:18:39;30.52;;;15.55;;
51382;SDS011;37475;43.358;1.248;2024-02-26T02:21:07;26.38;;;7.70;;
51382;SDS011;37475;43.358;1.248;2024-02-26T02:23:34;28.63;;;11.15;;
51382;SDS011;37475;43.358;1.248;2024-02-26T02:26:01;47.13;;;19.58;;
51382;SDS011;37475;43.358;1.248;2024-02-26T02:28:27;44.63;;;18.92;;
51382;SDS011;37475;43.358;1.248;2024-02-26T02:30:54;57.58;;;27.48;;
51382;SDS011;37475;43.358;1.248;2024-02-26T02:33:23;49.33;;;22.20;;
51382;SDS011;37475;43.358;1.248;2024-02-26T02:35:52;28.70;;;10.60;;
51382;SDS011;37475;43.358;1.248;2024-02-26T02:38:21;226.70;;;104.30;;
51382;SDS011;37475;43.358;1.248;2024-02-26T02:40:49;106.47;;;53.47;;
51382;SDS011;37475;43.358;1.248;2024-02-26T02:43:15;50.58;;;25.08;;
51382;SDS011;37475;43.358;1.248;2024-02-26T02:45:42;45.88;;;19.83;;
51382;SDS011;37475;43.358;1.248;2024-02-26T02:48:09;40.72;;;17.92;;
51382;SDS011;37475;43.358;1.248;2024-02-26T02:50:36;30.80;;;10.93;;
51382;SDS011;37475;43.358;1.248;2024-02-26T02:53:04;27.75;;;8.98;;
51382;SDS011;37475;43.358;1.248;2024-02-26T02:55:32;18.40;;;5.20;;
51382;SDS011;37475;43.358;1.248;2024-02-26T02:57:58;24.85;;;7.63;;
51382;SDS011;37475;43.358;1.248;2024-02-26T03:00:25;20.02;;;4.85;;
51382;SDS011;37475;43.358;1.248;2024-02-26T03:02:52;18.30;;;4.47;;
51382;SDS011;37475;43.358;1.248;2024-02-26T03:05:18;19.83;;;6.07;;
51382;SDS011;37475;43.358;1.248;2024-02-26T03:07:45;16.92;;;4.10;;
51382;SDS011;37475;43.358;1.248;2024-02-26T03:10:12;13.80;;;4.03;;
51382;SDS011;37475;43.358;1.248;2024-02-26T03:12:40;13.05;;;3.30;;
51382;SDS011;37475;43.358;1.248;2024-02-26T03:15:07;17.60;;;3.00;;
51382;SDS011;37475;43.358;1.248;2024-02-26T03:17:36;14.27;;;3.47;;
51382;SDS011;37475;43.358;1.248;2024-02-26T03:20:03;13.93;;;3.38;;
51382;SDS011;37475;43.358;1.248;2024-02-26T03:22:33;11.73;;;3.47;;
51382;SDS011;37475;43.358;1.248;2024-02-26T03:25:00;11.07;;;2.50;;
51382;SDS011;37475;43.358;1.248;2024-02-26T03:27:27;8.65;;;2.38;;
51382;SDS011;37475;43.358;1.248;2024-02-26T03:29:55;12.30;;;2.28;;
51382;SDS011;37475;43.358;1.248;2024-02-26T03:32:22;10.95;;;2.28;;
51382;SDS011;37475;43.358;1.248;2024-02-26T03:34:48;20.80;;;6.13;;
51382;SDS011;37475;43.358;1.248;2024-02-26T03:37:19;15.45;;;3.92;;
51382;SDS011;37475;43.358;1.248;2024-02-26T03:39:45;14.52;;;3.70;;
51382;SDS011;37475;43.358;1.248;2024-02-26T03:42:12;11.35;;;3.08;;
51382;SDS011;37475;43.358;1.248;2024-02-26T03:44:39;28.02;;;8.52;;
51382;SDS011;37475;43.358;1.248;2024-02-26T03:47:07;17.92;;;5.15;;
51382;SDS011;37475;43.358;1.248;2024-02-26T03:49:34;19.60;;;4.63;;
51382;SDS011;37475;43.358;1.248;2024-02-26T03:52:00;13.40;;;3.05;;
51382;SDS011;37475;43.358;1.248;2024-02-26T03:54:27;12.75;;;2.72;;
51382;SDS011;37475;43.358;1.248;2024-02-26T03:56:54;11.52;;;2.42;;
51382;SDS011;37475;43.358;1.248;2024-02-26T03:59:20;7.45;;;1.73;;
51382;SDS011;37475;43.358;1.248;2024-02-26T04:01:49;7.43;;;1.58;;
51382;SDS011;37475;43.358;1.248;2024-02-26T04:04:17;9.32;;;2.17;;
51382;SDS011;37475;43.358;1.248;2024-02-26T04:06:44;5.93;;;1.30;;
51382;SDS011;37475;43.358;1.248;2024-02-26T04:09:12;8.25;;;1.50;;
51382;SDS011;37475;43.358;1.248;2024-02-26T04:11:39;6.53;;;1.48;;
51382;SDS011;37475;43.358;1.248;2024-02-26T04:14:08;5.38;;;1.33;;
51382;SDS011;37475;43.358;1.248;2024-02-26T04:16:36;5.47;;;1.20;;
51382;SDS011;37475;43.358;1.248;2024-02-26T04:19:03;8.57;;;1.52;;
51382;SDS011;37475;43.358;1.248;2024-02-26T04:21:31;4.85;;;1.38;;
51382;SDS011;37475;43.358;1.248;2024-02-26T04:23:58;5.55;;;1.33;;
51382;SDS011;37475;43.358;1.248;2024-02-26T04:26:27;4.55;;;1.05;;
51382;SDS011;37475;43.358;1.248;2024-02-26T04:28:54;6.57;;;1.65;;
51382;SDS011;37475;43.358;1.248;2024-02-26T04:31:20;6.70;;;1.52;;
51382;SDS011;37475;43.358;1.248;2024-02-26T04:33:47;9.18;;;1.70;;
51382;SDS011;37475;43.358;1.248;2024-02-26T04:36:14;6.03;;;1.45;;
51382;SDS011;37475;43.358;1.248;2024-02-26T04:38:42;7.45;;;1.65;;
51382;SDS011;37475;43.358;1.248;2024-02-26T04:41:09;11.18;;;1.88;;
51382;SDS011;37475;43.358;1.248;2024-02-26T04:43:36;10.43;;;1.85;;
51382;SDS011;37475;43.358;1.248;2024-02-26T04:46:06;8.82;;;2.15;;
51382;SDS011;37475;43.358;1.248;2024-02-26T04:48:34;8.38;;;1.73;;
51382;SDS011;37475;43.358;1.248;2024-02-26T04:51:01;9.63;;;2.33;;
51382;SDS011;37475;43.358;1.248;2024-02-26T04:53:27;11.35;;;2.50;;
51382;SDS011;37475;43.358;1.248;2024-02-26T04:55:55;10.32;;;2.72;;
51382;SDS011;37475;43.358;1.248;2024-02-26T04:58:21;10.75;;;2.30;;
51382;SDS011;37475;43.358;1.248;2024-02-26T05:00:48;11.00;;;2.78;;
51382;SDS011;37475;43.358;1.248;2024-02-26T05:03:15;12.80;;;2.63;;
51382;SDS011;37475;43.358;1.248;2024-02-26T05:05:42;12.45;;;2.97;;
51382;SDS011;37475;43.358;1.248;2024-02-26T05:08:09;11.40;;;1.90;;
51382;SDS011;37475;43.358;1.248;2024-02-26T05:10:36;10.55;;;2.15;;
51382;SDS011;37475;43.358;1.248;2024-02-26T05:13:07;9.77;;;1.83;;
51382;SDS011;37475;43.358;1.248;2024-02-26T05:15:34;9.07;;;1.60;;
51382;SDS011;37475;43.358;1.248;2024-02-26T05:18:01;4.60;;;1.10;;
51382;SDS011;37475;43.358;1.248;2024-02-26T05:20:27;10.70;;;1.98;;
51382;SDS011;37475;43.358;1.248;2024-02-26T05:22:54;6.30;;;1.45;;
51382;SDS011;37475;43.358;1.248;2024-02-26T05:25:21;6.35;;;1.45;;
51382;SDS011;37475;43.358;1.248;2024-02-26T05:27:47;6.35;;;1.27;;
51382;SDS011;37475;43.358;1.248;2024-02-26T05:30:16;5.22;;;1.50;;
51382;SDS011;37475;43.358;1.248;2024-02-26T05:32:42;5.10;;;1.23;;
51382;SDS011;37475;43.358;1.248;2024-02-26T05:35:09;5.35;;;1.10;;
51382;SDS011;37475;43.358;1.248;2024-02-26T05:37:36;4.70;;;1.00;;
51382;SDS011;37475;43.358;1.248;2024-02-26T05:40:03;5.40;;;1.05;;
51382;SDS011;37475;43.358;1.248;2024-02-26T05:42:30;3.90;;;1.00;;
51382;SDS011;37475;43.358;1.248;2024-02-26T05:44:58;3.35;;;0.88;;
51382;SDS011;37475;43.358;1.248;2024-02-26T05:47:31;5.75;;;1.10;;
51382;SDS011;37475;43.358;1.248;2024-02-26T05:49:58;5.45;;;1.00;;
51382;SDS011;37475;43.358;1.248;2024-02-26T05:52:26;5.07;;;1.20;;
51382;SDS011;37475;43.358;1.248;2024-02-26T05:54:52;5.75;;;1.20;;
51382;SDS011;37475;43.358;1.248;2024-02-26T05:57:19;5.43;;;1.10;;
51382;SDS011;37475;43.358;1.248;2024-02-26T05:59:46;5.15;;;1.05;;
51382;SDS011;37475;43.358;1.248;2024-02-26T06:02:12;4.43;;;1.27;;
51382;SDS011;37475;43.358;1.248;2024-02-26T06:04:40;4.93;;;1.10;;
51382;SDS011;37475;43.358;1.248;2024-02-26T06:07:07;5.18;;;1.48;;
51382;SDS011;37475;43.358;1.248;2024-02-26T06:09:34;3.63;;;1.25;;
51382;SDS011;37475;43.358;1.248;2024-02-26T06:12:01;3.20;;;1.10;;
51382;SDS011;37475;43.358;1.248;2024-02-26T06:14:27;5.03;;;0.90;;
51382;SDS011;37475;43.358;1.248;2024-02-26T06:16:54;3.47;;;1.10;;
51382;SDS011;37475;43.358;1.248;2024-02-26T06:19:21;6.15;;;1.15;;
51382;SDS011;37475;43.358;1.248;2024-02-26T06:21:49;8.23;;;1.05;;
51382;SDS011;37475;43.358;1.248;2024-02-26T06:24:16;4.95;;;1.00;;
51382;SDS011;37475;43.358;1.248;2024-02-26T06:26:43;4.78;;;1.10;;
51382;SDS011;37475;43.358;1.248;2024-02-26T06:29:09;5.50;;;1.27;;
51382;SDS011;37475;43.358;1.248;2024-02-26T06:31:36;4.32;;;0.95;;
51382;SDS011;37475;43.358;1.248;2024-02-26T06:34:03;4.53;;;1.00;;
51382;SDS011;37475;43.358;1.248;2024-02-26T06:36:30;4.47;;;0.95;;
51382;SDS011;37475;43.358;1.248;2024-02-26T06:38:59;3.67;;;0.95;;
51382;SDS011;37475;43.358;1.248;2024-02-26T06:41:26;3.53;;;0.90;;
51382;SDS011;37475;43.358;1.248;2024-02-26T06:43:54;4.60;;;0.90;;
51382;SDS011;37475;43.358;1.248;2024-02-26T06:46:21;4.40;;;1.08;;
51382;SDS011;37475;43.358;1.248;2024-02-26T06:48:49;4.82;;;0.95;;
51382;SDS011;37475;43.358;1.248;2024-02-26T06:51:15;4.38;;;0.93;;
51382;SDS011;37475;43.358;1.248;2024-02-26T06:53:43;4.03;;;1.08;;
51382;SDS011;37475;43.358;1.248;2024-02-26T06:56:11;3.38;;;1.00;;
51382;SDS011;37475;43.358;1.248;2024-02-26T06:58:37;3.35;;;0.82;;
51382;SDS011;37475;43.358;1.248;2024-02-26T07:01:04;4.00;;;1.00;;
51382;SDS011;37475;43.358;1.248;2024-02-26T07:03:33;3.42;;;1.20;;
51382;SDS011;37475;43.358;1.248;2024-02-26T07:06:00;7.90;;;1.67;;
51382;SDS011;37475;43.358;1.248;2024-02-26T07:08:26;4.05;;;1.15;;
51382;SDS011;37475;43.358;1.248;2024-02-26T07:10:53;5.03;;;1.38;;
51382;SDS011;37475;43.358;1.248;2024-02-26T07:13:21;4.05;;;1.10;;
51382;SDS011;37475;43.358;1.248;2024-02-26T07:15:48;4.75;;;1.30;;
51382;SDS011;37475;43.358;1.248;2024-02-26T07:18:15;3.53;;;1.17;;
51382;SDS011;37475;43.358;1.248;2024-02-26T07:20:41;4.40;;;1.80;;
51382;SDS011;37475;43.358;1.248;2024-02-26T07:23:08;3.70;;;1.20;;
51382;SDS011;37475;43.358;1.248;2024-02-26T07:25:35;5.10;;;1.40;;
51382;SDS011;37475;43.358;1.248;2024-02-26T07:28:02;5.75;;;1.50;;
51382;SDS011;37475;43.358;1.248;2024-02-26T07:30:30;5.85;;;1.52;;
51382;SDS011;37475;43.358;1.248;2024-02-26T07:32:57;6.57;;;2.20;;
51382;SDS011;37475;43.358;1.248;2024-02-26T07:35:23;6.43;;;1.70;;
51382;SDS011;37475;43.358;1.248;2024-02-26T07:37:50;3.90;;;1.40;;
51382;SDS011;37475;43.358;1.248;2024-02-26T07:40:17;4.45;;;1.13;;
51382;SDS011;37475;43.358;1.248;2024-02-26T07:42:44;5.03;;;1.50;;
51382;SDS011;37475;43.358;1.248;2024-02-26T07:45:10;5.38;;;1.73;;
51382;SDS011;37475;43.358;1.248;2024-02-26T07:47:38;5.78;;;1.30;;
51382;SDS011;37475;43.358;1.248;2024-02-26T07:50:06;6.82;;;1.50;;
51382;SDS011;37475;43.358;1.248;2024-02-26T07:52:33;3.65;;;1.00;;
51382;SDS011;37475;43.358;1.248;2024-02-26T07:55:00;4.28;;;1.50;;
51382;SDS011;37475;43.358;1.248;2024-02-26T07:57:27;5.63;;;1.10;;
51382;SDS011;37475;43.358;1.248;2024-02-26T07:59:53;2.90;;;0.90;;
51382;SDS011;37475;43.358;1.248;2024-02-26T08:02:20;4.93;;;1.20;;
51382;SDS011;37475;43.358;1.248;2024-02-26T08:04:49;4.03;;;0.80;;
51382;SDS011;37475;43.358;1.248;2024-02-26T08:07:16;4.82;;;0.90;;
51382;SDS011;37475;43.358;1.248;2024-02-26T08:09:42;3.80;;;0.98;;
51382;SDS011;37475;43.358;1.248;2024-02-26T08:12:09;3.63;;;1.00;;
51382;SDS011;37475;43.358;1.248;2024-02-26T08:14:36;2.42;;;0.70;;
51382;SDS011;37475;43.358;1.248;2024-02-26T08:17:03;6.05;;;1.00;;
51382;SDS011;37475;43.358;1.248;2024-02-26T08:19:30;5.65;;;0.95;;
51382;SDS011;37475;43.358;1.248;2024-02-26T08:21:58;5.45;;;1.15;;
51382;SDS011;37475;43.358;1.248;2024-02-26T08:24:24;2.15;;;0.80;;
51382;SDS011;37475;43.358;1.248;2024-02-26T08:26:51;4.47;;;0.90;;
51382;SDS011;37475;43.358;1.248;2024-02-26T08:29:18;2.55;;;0.60;;
51382;SDS011;37475;43.358;1.248;2024-02-26T08:31:44;3.70;;;1.10;;
51382;SDS011;37475;43.358;1.248;2024-02-26T08:34:11;3.55;;;0.80;;
51382;SDS011;37475;43.358;1.248;2024-02-26T08:36:38;3.90;;;1.00;;
51382;SDS011;37475;43.358;1.248;2024-02-26T08:39:06;4.22;;;0.90;;
51382;SDS011;37475;43.358;1.248;2024-02-26T08:41:34;4.53;;;1.05;;
51382;SDS011;37475;43.358;1.248;2024-02-26T08:44:00;3.63;;;1.00;;
51382;SDS011;37475;43.358;1.248;2024-02-26T08:46:27;4.75;;;0.90;;
51382;SDS011;37475;43.358;1.248;2024-02-26T08:48:54;5.45;;;1.00;;
51382;SDS011;37475;43.358;1.248;2024-02-26T08:51:20;2.75;;;0.70;;
51382;SDS011;37475;43.358;1.248;2024-02-26T08:53:47;6.00;;;1.13;;
51382;SDS011;37475;43.358;1.248;2024-02-26T08:56:16;4.75;;;1.10;;
51382;SDS011;37475;43.358;1.248;2024-02-26T08:58:43;3.10;;;0.98;;
51382;SDS011;37475;43.358;1.248;2024-02-26T09:01:11;4.38;;;1.23;;
51382;SDS011;37475;43.358;1.248;2024-02-26T09:03:38;2.95;;;0.70;;
51382;SDS011;37475;43.358;1.248;2024-02-26T09:06:05;5.10;;;0.70;;
51382;SDS011;37475;43.358;1.248;2024-02-26T09:08:32;4.00;;;1.02;;
51382;SDS011;37475;43.358;1.248;2024-02-26T09:11:00;2.47;;;0.60;;
51382;SDS011;37475;43.358;1.248;2024-02-26T09:13:29;3.85;;;0.80;;
51382;SDS011;37475;43.358;1.248;2024-02-26T09:15:56;3.42;;;0.90;;
51382;SDS011;37475;43.358;1.248;2024-02-26T09:18:24;6.57;;;1.15;;
51382;SDS011;37475;43.358;1.248;2024-02-26T09:20:50;2.33;;;0.55;;
51382;SDS011;37475;43.358;1.248;2024-02-26T09:23:17;2.17;;;0.63;;
51382;SDS011;37475;43.358;1.248;2024-02-26T09:25:44;4.20;;;0.85;;
51382;SDS011;37475;43.358;1.248;2024-02-26T09:28:10;2.28;;;0.95;;
51382;SDS011;37475;43.358;1.248;2024-02-26T09:30:38;3.30;;;0.93;;
51382;SDS011;37475;43.358;1.248;2024-02-26T09:33:05;5.85;;;0.90;;
51382;SDS011;37475;43.358;1.248;2024-02-26T09:35:32;4.30;;;0.70;;
51382;SDS011;37475;43.358;1.248;2024-02-26T09:37:59;3.85;;;0.68;;
51382;SDS011;37475;43.358;1.248;2024-02-26T09:40:26;2.05;;;0.60;;
51382;SDS011;37475;43.358;1.248;2024-02-26T09:42:53;1.80;;;0.60;;
51382;SDS011;37475;43.358;1.248;2024-02-26T09:45:25;2.65;;;0.70;;
51382;SDS011;37475;43.358;1.248;2024-02-26T09:47:55;1.55;;;0.50;;
51382;SDS011;37475;43.358;1.248;2024-02-26T09:50:22;5.25;;;0.80;;
51382;SDS011;37475;43.358;1.248;2024-02-26T09:52:49;2.42;;;1.00;;
51382;SDS011;37475;43.358;1.248;2024-02-26T09:55:17;2.35;;;0.70;;
51382;SDS011;37475;43.358;1.248;2024-02-26T09:57:44;2.05;;;0.65;;
51382;SDS011;37475;43.358;1.248;2024-02-26T10:00:13;2.42;;;0.55;;
51382;SDS011;37475;43.358;1.248;2024-02-26T10:02:44;2.53;;;0.70;;
51382;SDS011;37475;43.358;1.248;2024-02-26T10:05:14;2.83;;;0.77;;
51382;SDS011;37475;43.358;1.248;2024-02-26T10:07:43;3.55;;;0.77;;
51382;SDS011;37475;43.358;1.248;2024-02-26T10:10:10;2.45;;;0.70;;
51382;SDS011;37475;43.358;1.248;2024-02-26T10:12:37;3.38;;;0.80;;
51382;SDS011;37475;43.358;1.248;2024-02-26T10:15:04;4.78;;;0.88;;
51382;SDS011;37475;43.358;1.248;2024-02-26T10:17:31;4.82;;;0.90;;
51382;SDS011;37475;43.358;1.248;2024-02-26T10:20:10;3.75;;;0.70;;
51382;SDS011;37475;43.358;1.248;2024-02-26T10:22:39;2.28;;;0.70;;
51382;SDS011;37475;43.358;1.248;2024-02-26T10:25:07;4.35;;;0.75;;
51382;SDS011;37475;43.358;1.248;2024-02-26T10:27:34;2.53;;;0.60;;
51382;SDS011;37475;43.358;1.248;2024-02-26T10:30:02;3.10;;;0.90;;
51382;SDS011;37475;43.358;1.248;2024-02-26T10:32:30;2.75;;;0.60;;
51382;SDS011;37475;43.358;1.248;2024-02-26T10:34:57;2.72;;;0.50;;
51382;SDS011;37475;43.358;1.248;2024-02-26T10:37:23;3.22;;;0.80;;
51382;SDS011;37475;43.358;1.248;2024-02-26T10:39:52;2.65;;;0.80;;
51382;SDS011;37475;43.358;1.248;2024-02-26T10:42:19;1.77;;;0.50;;
51382;SDS011;37475;43.358;1.248;2024-02-26T10:44:46;2.58;;;0.60;;
51382;SDS011;37475;43.358;1.248;2024-02-26T10:47:14;2.65;;;0.60;;
51382;SDS011;37475;43.358;1.248;2024-02-26T10:49:44;4.65;;;0.70;;
51382;SDS011;37475;43.358;1.248;2024-02-26T10:52:13;0.80;;;0.50;;
51382;SDS011;37475;43.358;1.248;2024-02-26T10:54:41;2.95;;;0.60;;
51382;SDS011;37475;43.358;1.248;2024-02-26T10:57:12;1.27;;;0.43;;
51382;SDS011;37475;43.358;1.248;2024-02-26T10:59:40;3.08;;;0.47;;
51382;SDS011;37475;43.358;1.248;2024-02-26T11:02:08;3.00;;;0.52;;
51382;SDS011;37475;43.358;1.248;2024-02-26T11:04:35;1.10;;;0.40;;
51382;SDS011;37475;43.358;1.248;2024-02-26T11:07:03;2.78;;;0.68;;
51382;SDS011;37475;43.358;1.248;2024-02-26T11:09:32;2.05;;;0.60;;
51382;SDS011;37475;43.358;1.248;2024-02-26T11:11:59;0.95;;;0.40;;
51382;SDS011;37475;43.358;1.248;2024-02-26T11:14:27;1.75;;;0.50;;
51382;SDS011;37475;43.358;1.248;2024-02-26T11:16:56;1.25;;;0.50;;
51382;SDS011;37475;43.358;1.248;2024-02-26T11:19:24;2.47;;;0.60;;
51382;SDS011;37475;43.358;1.248;2024-02-26T11:21:51;1.65;;;0.50;;
51382;SDS011;37475;43.358;1.248;2024-02-26T11:24:17;2.17;;;0.50;;
51382;SDS011;37475;43.358;1.248;2024-02-26T11:26:45;1.55;;;0.50;;
51382;SDS011;37475;43.358;1.248;2024-02-26T11:29:16;1.90;;;0.40;;
51382;SDS011;37475;43.358;1.248;2024-02-26T11:31:48;1.48;;;0.60;;
51382;SDS011;37475;43.358;1.248;2024-02-26T11:34:15;1.58;;;0.50;;
51382;SDS011;37475;43.358;1.248;2024-02-26T11:36:43;2.80;;;0.60;;
51382;SDS011;37475;43.358;1.248;2024-02-26T11:39:10;0.88;;;0.38;;
51382;SDS011;37475;43.358;1.248;2024-02-26T11:41:40;2.10;;;0.60;;
51382;SDS011;37475;43.358;1.248;2024-02-26T11:44:07;3.28;;;0.60;;
51382;SDS011;37475;43.358;1.248;2024-02-26T11:46:38;3.58;;;0.57;;
51382;SDS011;37475;43.358;1.248;2024-02-26T11:51:58;1.73;;;0.40;;
51382;SDS011;37475;43.358;1.248;2024-02-26T11:54:39;1.55;;;0.40;;
51382;SDS011;37475;43.358;1.248;2024-02-26T11:57:25;0.90;;;0.50;;
51382;SDS011;37475;43.358;1.248;2024-02-26T11:59:53;0.75;;;0.40;;
51382;SDS011;37475;43.358;1.248;2024-02-26T12:05:08;1.65;;;0.50;;
51382;SDS011;37475;43.358;1.248;2024-02-26T12:07:39;0.82;;;0.40;;
51382;SDS011;37475;43.358;1.248;2024-02-26T12:10:13;1.45;;;0.50;;
51382;SDS011;37475;43.358;1.248;2024-02-26T12:12:42;2.38;;;0.50;;
51382;SDS011;37475;43.358;1.248;2024-02-26T12:15:08;1.10;;;0.40;;
51382;SDS011;37475;43.358;1.248;2024-02-26T12:17:36;1.95;;;0.50;;
51382;SDS011;37475;43.358;1.248;2024-02-26T12:20:11;1.73;;;0.50;;
51382;SDS011;37475;43.358;1.248;2024-02-26T12:22:39;2.80;;;0.50;;
51382;SDS011;37475;43.358;1.248;2024-02-26T12:25:08;2.05;;;0.40;;
51382;SDS011;37475;43.358;1.248;2024-02-26T12:27:35;1.60;;;0.50;;
51382;SDS011;37475;43.358;1.248;2024-02-26T12:30:02;2.38;;;0.60;;
51382;SDS011;37475;43.358;1.248;2024-02-26T12:32:29;1.42;;;0.40;;
51382;SDS011;37475;43.358;1.248;2024-02-26T12:34:58;2.17;;;0.50;;
51382;SDS011;37475;43.358;1.248;2024-02-26T12:37:27;1.77;;;0.40;;
51382;SDS011;37475;43.358;1.248;2024-02-26T12:39:54;1.58;;;0.50;;
51382;SDS011;37475;43.358;1.248;2024-02-26T12:42:21;1.55;;;0.50;;
51382;SDS011;37475;43.358;1.248;2024-02-26T12:44:49;1.15;;;0.50;;
51382;SDS011;37475;43.358;1.248;2024-02-26T12:47:16;0.80;;;0.32;;
51382;SDS011;37475;43.358;1.248;2024-02-26T12:49:46;1.23;;;0.45;;
51382;SDS011;37475;43.358;1.248;2024-02-26T12:52:13;1.35;;;0.30;;
51382;SDS011;37475;43.358;1.248;2024-02-26T12:54:42;1.83;;;0.40;;
51382;SDS011;37475;43.358;1.248;2024-02-26T12:57:10;1.27;;;0.50;;
51382;SDS011;37475;43.358;1.248;2024-02-26T12:59:37;1.75;;;0.40;;
51382;SDS011;37475;43.358;1.248;2024-02-26T13:02:05;1.88;;;0.50;;
51382;SDS011;37475;43.358;1.248;2024-02-26T13:04:32;2.08;;;0.40;;
51382;SDS011;37475;43.358;1.248;2024-02-26T13:06:59;1.98;;;0.30;;
51382;SDS011;37475;43.358;1.248;2024-02-26T13:09:28;4.15;;;0.50;;
51382;SDS011;37475;43.358;1.248;2024-02-26T13:11:59;0.68;;;0.35;;
51382;SDS011;37475;43.358;1.248;2024-02-26T13:14:26;1.83;;;0.43;;
51382;SDS011;37475;43.358;1.248;2024-02-26T13:16:56;2.15;;;0.40;;
51382;SDS011;37475;43.358;1.248;2024-02-26T13:19:23;0.22;;;0.20;;
51382;SDS011;37475;43.358;1.248;2024-02-26T13:21:50;0.75;;;0.30;;
51382;SDS011;37475;43.358;1.248;2024-02-26T13:24:16;2.35;;;0.30;;
51382;SDS011;37475;43.358;1.248;2024-02-26T13:26:45;1.50;;;0.40;;
51382;SDS011;37475;43.358;1.248;2024-02-26T13:29:17;1.95;;;0.50;;
51382;SDS011;37475;43.358;1.248;2024-02-26T13:34:11;1.23;;;0.40;;
51382;SDS011;37475;43.358;1.248;2024-02-26T13:36:49;1.17;;;0.40;;
51382;SDS011;37475;43.358;1.248;2024-02-26T13:39:21;1.60;;;0.50;;
51382;SDS011;37475;43.358;1.248;2024-02-26T13:41:49;0.32;;;0.30;;
51382;SDS011;37475;43.358;1.248;2024-02-26T13:44:15;0.60;;;0.32;;
51382;SDS011;37475;43.358;1.248;2024-02-26T13:46:44;2.63;;;1.00;;
51382;SDS011;37475;43.358;1.248;2024-02-26T13:49:10;1.20;;;0.40;;
51382;SDS011;37475;43.358;1.248;2024-02-26T13:51:38;0.68;;;0.30;;
51382;SDS011;37475;43.358;1.248;2024-02-26T13:54:05;0.75;;;0.32;;
51382;SDS011;37475;43.358;1.248;2024-02-26T13:56:32;1.25;;;0.40;;
51382;SDS011;37475;43.358;1.248;2024-02-26T13:58:59;2.13;;;0.70;;
51382;SDS011;37475;43.358;1.248;2024-02-26T14:01:27;1.27;;;0.30;;
51382;SDS011;37475;43.358;1.248;2024-02-26T14:03:54;0.82;;;0.40;;
51382;SDS011;37475;43.358;1.248;2024-02-26T14:06:22;0.77;;;0.40;;
51382;SDS011;37475;43.358;1.248;2024-02-26T14:08:49;0.65;;;0.40;;
51382;SDS011;37475;43.358;1.248;2024-02-26T14:11:16;2.10;;;0.40;;
51382;SDS011;37475;43.358;1.248;2024-02-26T14:13:43;2.30;;;0.50;;
51382;SDS011;37475;43.358;1.248;2024-02-26T14:16:11;1.42;;;0.30;;
51382;SDS011;37475;43.358;1.248;2024-02-26T14:18:40;1.00;;;0.30;;
51382;SDS011;37475;43.358;1.248;2024-02-26T14:21:09;1.10;;;0.40;;
51382;SDS011;37475;43.358;1.248;2024-02-26T14:23:36;0.85;;;0.30;;
51382;SDS011;37475;43.358;1.248;2024-02-26T14:26:02;1.15;;;0.65;;
51382;SDS011;37475;43.358;1.248;2024-02-26T14:28:29;1.60;;;0.50;;
51382;SDS011;37475;43.358;1.248;2024-02-26T14:30:57;1.90;;;0.40;;
51382;SDS011;37475;43.358;1.248;2024-02-26T14:33:23;1.10;;;0.43;;
51382;SDS011;37475;43.358;1.248;2024-02-26T14:35:51;1.23;;;0.40;;
51382;SDS011;37475;43.358;1.248;2024-02-26T14:38:18;1.60;;;0.40;;
51382;SDS011;37475;43.358;1.248;2024-02-26T14:40:45;1.73;;;0.50;;
51382;SDS011;37475;43.358;1.248;2024-02-26T14:43:11;0.82;;;0.30;;
51382;SDS011;37475;43.358;1.248;2024-02-26T14:45:38;0.90;;;0.50;;
51382;SDS011;37475;43.358;1.248;2024-02-26T14:48:05;1.20;;;0.38;;
51382;SDS011;37475;43.358;1.248;2024-02-26T14:50:33;0.95;;;0.40;;
51382;SDS011;37475;43.358;1.248;2024-02-26T14:53:01;1.67;;;0.50;;
51382;SDS011;37475;43.358;1.248;2024-02-26T14:55:28;0.82;;;0.40;;